ESGJ/JKG METAR and TAF weather

Enter ICAO airport designator
Station Type Date Time Source
ESGJ METAR 2022/12/05 14:50 UTC NOAA

ESGJ 051450Z 03007KT 6000 SG BKN006 M01/M01 Q1023


Station Type Date Time Source
ESGJ Decoded METAR 2022/12/05 14:50 UTC NOAA

Jonkoping Flygplats, Sweden (ESGJ) 57-46N 014-05E 232M
Dec 05, 2022 - 09:50 AM EST / 2022.12.05 1450 UTC
Wind: from the NNE (030 degrees) at 8 MPH (7 KT):0
Visibility: 3 mile(s):0
Sky conditions: mostly cloudy
Weather: snow grains
Temperature: 30 F (-1 C)
Windchill: 23 F (-5 C):1
Dew Point: 30 F (-1 C)
Relative Humidity: 100%
Pressure (altimeter): 30.21 in. Hg (1023 hPa)
ob: ESGJ 051450Z 03007KT 6000 SG BKN006 M01/M01 Q1023
cycle: 15

Station Type Date Time Source
ESGJ TAF 2015/05/01 23:06 UTC NOAA

TAF TAF ESGJ 302359Z 3023/0101 CNL

Example: see airport list